Time;durP1;ratioP1;P1;durP2;ratioP2;P2;SDS_P1;SDS_P2;PMS_P1;PMS_P2;Temp;Humidity;BMP_temperature;BMP_pressure;BME280_temperature;BME280_humidity;BME280_pressure;Samples;Min_cycle;Max_cycle;Signal;HPM_P1;HPM_P2
2022/06/20 00:00:06;;;;;;;8.07;1.85;;;;;;;13.47;64.61;100998.50;5134076;27;20344;-52
2022/06/20 00:02:35;;;;;;;5.45;1.67;;;;;;;13.48;63.99;101006.38;5134368;27;20115;-48
2022/06/20 00:05:03;;;;;;;7.28;1.70;;;;;;;13.43;64.07;100989.09;5134391;27;20041;-48
2022/06/20 00:07:29;;;;;;;8.30;1.80;;;;;;;13.55;63.56;100992.91;5134092;27;20031;-49
2022/06/20 00:09:55;;;;;;;9.48;2.10;;;;;;;13.57;63.54;100985.44;5133897;27;20050;-48
2022/06/20 00:12:25;;;;;;;9.40;1.90;;;;;;;13.51;63.49;100978.16;5134160;27;20031;-48
2022/06/20 00:14:55;;;;;;;4.85;1.65;;;;;;;13.42;63.45;100972.09;5133715;27;20413;-49
2022/06/20 00:17:21;;;;;;;5.05;1.38;;;;;;;13.52;63.19;100991.47;5132971;28;20035;-49
2022/06/20 00:19:47;;;;;;;6.50;1.63;;;;;;;13.44;63.67;100990.78;5132798;28;20035;-48
2022/06/20 00:22:13;;;;;;;7.75;2.30;;;;;;;13.44;63.57;100977.28;5134357;27;20023;-49
2022/06/20 00:24:39;;;;;;;9.48;1.65;;;;;;;13.29;63.30;100947.72;5133982;27;20057;-48
2022/06/20 00:27:07;;;;;;;5.93;1.63;;;;;;;13.42;63.51;100972.09;5133733;27;20076;-49
2022/06/20 00:29:34;;;;;;;4.38;1.30;;;;;;;13.26;63.17;100962.44;5133727;28;20031;-48
2022/06/20 00:32:00;;;;;;;4.00;1.58;;;;;;;13.29;63.39;100972.00;5133977;27;20027;-48
2022/06/20 00:34:26;;;;;;;7.40;1.85;;;;;;;13.11;64.28;100985.97;5134304;27;20027;-49
2022/06/20 00:36:52;;;;;;;9.20;1.95;;;;;;;13.11;64.21;100996.78;5133714;27;20038;-48
2022/06/20 00:39:20;;;;;;;13.20;2.33;;;;;;;13.14;64.05;100991.81;5116354;27;20031;-49
2022/06/20 00:41:48;;;;;;;3.20;1.08;;;;;;;13.12;63.84;100993.88;5136400;27;20433;-49
2022/06/20 00:44:21;;;;;;;7.65;1.40;;;;;;;13.10;63.81;100989.72;5139754;27;20041;-52
2022/06/20 00:46:52;;;;;;;6.45;1.42;;;;;;;13.09;63.47;100990.75;5137692;27;20122;-52
2022/06/20 00:49:23;;;;;;;8.13;1.60;;;;;;;13.01;64.21;100985.50;5136558;27;20031;-52
2022/06/20 00:51:57;;;;;;;6.38;2.05;;;;;;;12.77;65.10;100984.91;5137850;27;20027;-48
2022/06/20 00:54:32;;;;;;;10.38;1.80;;;;;;;12.81;64.73;101001.53;5137735;27;20023;-50
2022/06/20 00:57:27;;;;;;;12.07;1.88;;;;;;;12.79;64.49;100989.06;5138067;27;20408;-49
2022/06/20 01:00:03;;;;;;;7.88;2.08;;;;;;;12.62;65.17;100993.09;5136706;27;20076;-47
2022/06/20 01:02:34;;;;;;;7.47;1.63;;;;;;;12.47;65.55;100974.31;5135787;27;20042;-49
2022/06/20 01:05:06;;;;;;;7.78;1.88;;;;;;;12.55;64.84;100973.34;5137534;27;20034;-49
2022/06/20 01:07:42;;;;;;;4.28;1.63;;;;;;;12.55;64.90;100971.47;5136288;27;20031;-48
2022/06/20 01:10:12;;;;;;;6.97;1.52;;;;;;;12.44;64.95;100941.53;5119562;27;20047;-49
2022/06/20 01:12:48;;;;;;;5.70;1.67;;;;;;;12.62;65.01;100970.72;5137238;27;20165;-49
2022/06/20 01:15:22;;;;;;;7.07;1.60;;;;;;;12.54;64.62;100964.44;5137197;27;20034;-50
2022/06/20 01:17:50;;;;;;;7.13;1.33;;;;;;;12.59;64.57;100988.94;5137154;27;20027;-49
2022/06/20 01:20:24;;;;;;;6.15;1.40;;;;;;;12.53;64.41;100992.38;5137466;27;20035;-48
2022/06/20 01:23:30;;;;;;;3.92;1.30;;;;;;;12.53;64.81;100987.00;5135297;27;20429;-49
2022/06/20 01:26:21;;;;;;;8.68;1.60;;;;;;;12.49;64.73;100976.81;5124412;27;20360;-48
2022/06/20 01:28:51;;;;;;;7.65;1.65;;;;;;;12.47;64.53;100974.31;5136950;27;20031;-49
2022/06/20 01:31:20;;;;;;;7.93;1.63;;;;;;;12.44;64.22;100982.75;5137183;27;20041;-49
2022/06/20 01:33:49;;;;;;;5.53;1.33;;;;;;;12.43;64.21;100983.81;5136662;27;20038;-49
2022/06/20 01:39:05;;;;;;;6.03;1.60;;;;;;;12.39;64.54;100975.28;5108068;27;20027;-48
2022/06/20 01:44:19;;;;;;;8.45;1.58;;;;;;;12.32;64.81;100987.00;5136481;27;20038;-52
2022/06/20 01:46:45;;;;;;;3.95;1.38;;;;;;;12.26;64.89;100995.84;5135981;27;20111;-49
2022/06/20 01:49:14;;;;;;;3.05;1.20;;;;;;;12.27;64.44;101000.22;5137678;27;20046;-48
2022/06/20 01:51:55;;;;;;;5.50;1.63;;;;;;;12.20;65.29;101006.38;5135290;27;20031;-48
2022/06/20 01:54:23;;;;;;;7.63;1.15;;;;;;;12.06;66.18;100992.97;5135216;27;20087;-47
2022/06/20 01:56:52;;;;;;;5.28;1.65;;;;;;;12.12;65.59;100995.72;5136299;27;20019;-48
2022/06/20 01:59:24;;;;;;;6.47;1.50;;;;;;;12.11;65.42;101003.97;5136068;27;20031;-48
2022/06/20 02:01:51;;;;;;;7.18;2.10;;;;;;;12.13;65.78;101013.53;5118334;27;20062;-49
2022/06/20 02:04:21;;;;;;;4.63;2.25;;;;;;;12.10;65.50;101026.56;5136562;27;20125;-49
2022/06/20 02:06:48;;;;;;;9.35;1.70;;;;;;;12.04;66.11;101021.94;5136235;27;20471;-48
2022/06/20 02:09:14;;;;;;;6.88;1.52;;;;;;;11.96;66.55;101037.16;5135594;27;20066;-47
2022/06/20 02:11:44;;;;;;;9.25;1.40;;;;;;;11.96;66.01;101036.31;5135397;27;20027;-47
2022/06/20 02:14:16;;;;;;;6.05;1.67;;;;;;;11.88;66.24;101036.41;5134683;27;20565;-47
2022/06/20 02:16:46;;;;;;;5.00;1.75;;;;;;;11.91;66.10;101052.22;5135682;27;20141;-48
2022/06/20 02:19:17;;;;;;;7.78;2.67;;;;;;;11.77;66.65;101037.72;5135954;27;20031;-51
2022/06/20 02:21:45;;;;;;;6.70;1.50;;;;;;;11.73;66.39;101045.31;5135807;27;20475;-48
2022/06/20 02:24:14;;;;;;;5.18;1.30;;;;;;;11.64;66.63;101057.19;5136084;27;20099;-49
2022/06/20 02:26:42;;;;;;;5.47;1.88;;;;;;;11.49;67.07;101057.19;5134784;27;20027;-47
2022/06/20 02:29:23;;;;;;;7.07;2.00;;;;;;;11.50;67.65;101090.34;5117297;27;20423;-49
2022/06/20 02:32:04;;;;;;;5.75;1.48;;;;;;;11.43;67.96;101096.44;5134425;27;20088;-51
2022/06/20 02:34:30;;;;;;;8.35;1.77;;;;;;;11.24;67.86;101078.16;5136750;27;20479;-52
2022/06/20 02:37:01;;;;;;;3.22;1.70;;;;;;;11.25;68.55;101101.31;5137222;27;20035;-53
2022/06/20 02:39:29;;;;;;;6.07;1.83;;;;;;;11.10;69.55;101097.75;5138031;27;20055;-51
2022/06/20 02:42:02;;;;;;;10.60;2.60;;;;;;;11.08;68.87;101110.56;5136105;27;20038;-52
2022/06/20 02:44:30;;;;;;;6.13;1.92;;;;;;;11.04;68.85;101104.69;5134578;27;20039;-48
2022/06/20 02:46:56;;;;;;;6.78;2.03;;;;;;;11.02;69.29;101104.03;5135620;27;20023;-51
2022/06/20 02:49:27;;;;;;;8.07;1.92;;;;;;;10.97;69.46;101104.56;5136432;27;20027;-49
2022/06/20 02:51:54;;;;;;;3.00;1.42;;;;;;;11.00;68.75;101106.91;5117143;27;20114;-48
2022/06/20 02:54:24;;;;;;;8.20;2.47;;;;;;;10.99;69.51;101118.66;5133817;27;20032;-47
2022/06/20 02:56:58;;;;;;;6.82;1.52;;;;;;;10.94;69.11;101125.59;5134125;27;20076;-50
2022/06/20 02:59:41;;;;;;;5.65;1.90;;;;;;;10.90;70.08;101125.16;5135244;27;20050;-49
2022/06/20 03:02:10;;;;;;;4.35;2.10;;;;;;;10.90;69.81;101122.47;5133781;27;20037;-48
2022/06/20 03:04:40;;;;;;;4.43;1.90;;;;;;;11.12;69.93;101147.63;5135160;27;20042;-49
2022/06/20 03:07:13;;;;;;;8.32;2.17;;;;;;;11.31;69.54;101148.16;5116976;27;20030;-49
2022/06/20 03:09:42;;;;;;;5.13;1.55;;;;;;;11.36;69.41;101145.75;5134838;27;20043;-49
2022/06/20 03:12:09;;;;;;;5.38;1.55;;;;;;;11.45;68.57;101138.47;5099929;27;20388;-48
2022/06/20 03:14:39;;;;;;;4.50;1.70;;;;;;;11.56;68.97;101148.78;5133341;27;20023;-48
2022/06/20 03:17:06;;;;;;;6.90;2.17;;;;;;;11.47;69.31;101131.03;5133187;27;20450;-49
2022/06/20 03:19:35;;;;;;;7.65;2.15;;;;;;;11.52;69.23;101124.09;5133463;27;20038;-48
2022/06/20 03:22:04;;;;;;;7.20;1.83;;;;;;;11.68;68.48;101136.56;5133110;27;20031;-47
2022/06/20 03:24:31;;;;;;;6.03;1.20;;;;;;;11.69;68.50;101132.81;5134428;27;20027;-47
2022/06/20 03:26:58;;;;;;;7.47;1.90;;;;;;;11.79;67.79;101136.09;5132870;27;20079;-48
2022/06/20 03:29:25;;;;;;;6.03;1.90;;;;;;;11.73;67.54;101122.53;5133120;27;20027;-49
2022/06/20 03:31:52;;;;;;;7.90;2.00;;;;;;;11.72;67.56;101134.28;5134519;27;20027;-51
2022/06/20 03:34:18;;;;;;;7.13;1.80;;;;;;;11.72;67.24;101147.75;5134216;27;20031;-50
2022/06/20 03:36:47;;;;;;;2.65;1.40;;;;;;;11.51;67.57;101135.03;5134110;27;20180;-48
2022/06/20 03:39:13;;;;;;;2.78;1.58;;;;;;;11.56;67.57;101154.16;5134075;27;20424;-49
2022/06/20 03:41:40;;;;;;;5.60;1.80;;;;;;;11.38;68.08;101138.34;5134698;27;20023;-49
2022/06/20 03:44:29;;;;;;;7.50;1.63;;;;;;;11.39;68.14;101142.72;5133863;27;20051;-49
2022/06/20 03:47:05;;;;;;;7.60;2.13;;;;;;;11.21;68.98;101127.72;5133351;27;20034;-51
2022/06/20 03:49:55;;;;;;;6.38;2.10;;;;;;;11.32;68.96;101139.06;5134577;27;20080;-49
2022/06/20 03:52:25;;;;;;;9.48;2.35;;;;;;;11.28;68.24;101133.22;5133027;27;20051;-48
2022/06/20 03:55:00;;;;;;;5.43;1.90;;;;;;;11.19;68.49;101121.69;5134479;27;20123;-49
2022/06/20 03:57:58;;;;;;;8.82;2.25;;;;;;;11.22;69.16;101131.28;5133083;28;20385;-49
2022/06/20 04:00:36;;;;;;;8.13;2.20;;;;;;;11.15;68.88;101130.31;5134279;27;20050;-48
2022/06/20 04:03:17;;;;;;;6.95;2.35;;;;;;;11.10;68.85;101127.31;5132741;28;20024;-49
2022/06/20 04:05:50;;;;;;;6.45;2.05;;;;;;;11.02;68.69;101123.69;5132716;28;20031;-51
2022/06/20 04:08:24;;;;;;;10.80;2.28;;;;;;;11.02;69.05;101122.88;5133824;27;20043;-52
2022/06/20 04:10:59;;;;;;;7.82;1.83;;;;;;;11.04;69.22;101107.38;5133064;28;20031;-49
2022/06/20 04:13:35;;;;;;;7.93;2.10;;;;;;;11.26;69.13;101126.38;5115915;27;20038;-49
2022/06/20 04:16:07;;;;;;;7.03;1.90;;;;;;;11.35;68.83;101134.16;5137782;27;20119;-47
2022/06/20 04:18:44;;;;;;;6.07;1.80;;;;;;;11.38;68.40;101127.56;5138280;27;20034;-48
2022/06/20 04:21:23;;;;;;;5.13;1.73;;;;;;;11.26;68.46;101116.44;5138177;27;20072;-48
2022/06/20 04:24:02;;;;;;;8.68;1.83;;;;;;;11.19;69.20;101137.81;5120646;27;20027;-47
2022/06/20 04:26:34;;;;;;;3.88;1.77;;;;;;;11.14;69.45;101123.25;5138350;27;20030;-49
2022/06/20 04:29:09;;;;;;;6.10;1.52;;;;;;;11.10;69.65;101120.09;5138183;27;20034;-50
2022/06/20 04:32:08;;;;;;;3.05;1.50;;;;;;;11.22;70.20;101129.41;5136328;27;20122;-48
2022/06/20 04:34:39;;;;;;;5.50;1.90;;;;;;;11.25;69.97;101125.50;5137573;27;20039;-53
2022/06/20 04:37:23;;;;;;;4.57;1.50;;;;;;;11.26;69.79;101129.06;5138383;27;20061;-53
2022/06/20 04:39:58;;;;;;;3.50;1.52;;;;;;;11.23;69.24;101139.13;5138189;27;20031;-48
2022/06/20 04:42:39;;;;;;;4.13;1.40;;;;;;;11.18;69.83;101156.81;5137719;27;20428;-49
2022/06/20 04:45:19;;;;;;;4.55;1.52;;;;;;;11.12;69.87;101157.56;5137932;27;20398;-50
2022/06/20 04:47:54;;;;;;;8.27;1.90;;;;;;;11.04;69.96;101148.53;5137743;27;20031;-52
2022/06/20 04:50:23;;;;;;;5.60;1.60;;;;;;;10.96;69.81;101128.97;5137700;27;20039;-52
2022/06/20 04:52:52;;;;;;;3.97;1.23;;;;;;;11.30;69.40;101147.31;5136213;27;20410;-49
2022/06/20 04:55:21;;;;;;;3.80;1.38;;;;;;;11.59;68.97;101160.00;5136335;27;20035;-49
2022/06/20 04:57:49;;;;;;;3.90;1.42;;;;;;;11.68;68.51;101158.06;5137839;27;20055;-48
2022/06/20 05:00:19;;;;;;;4.65;1.55;;;;;;;11.78;68.85;101161.31;5137618;27;20070;-48
2022/06/20 05:02:47;;;;;;;4.80;1.88;;;;;;;11.86;68.83;101163.06;5137569;27;20032;-49
2022/06/20 05:05:18;;;;;;;7.47;2.03;;;;;;;11.78;68.83;101160.50;5135795;27;20031;-47
2022/06/20 05:07:45;;;;;;;4.90;1.90;;;;;;;11.72;68.77;101169.28;5136081;27;20034;-48
2022/06/20 05:10:25;;;;;;;7.57;1.88;;;;;;;11.59;69.35;101160.00;5137469;27;20043;-48
2022/06/20 05:12:57;;;;;;;5.72;1.85;;;;;;;11.54;69.11;101150.81;5137105;27;20085;-49
2022/06/20 05:15:31;;;;;;;5.15;2.15;;;;;;;11.48;69.31;101152.38;5135779;27;20054;-49
2022/06/20 05:18:04;;;;;;;5.93;2.20;;;;;;;11.49;69.46;101147.81;5137032;27;20041;-49
2022/06/20 05:20:34;;;;;;;4.80;2.05;;;;;;;11.50;68.92;101150.34;5118896;27;20031;-50
2022/06/20 05:23:11;;;;;;;5.53;1.98;;;;;;;11.46;69.53;101149.03;5135411;27;20019;-47
2022/06/20 05:25:37;;;;;;;10.75;2.50;;;;;;;11.49;69.57;101150.50;5118506;27;20027;-48
2022/06/20 05:28:10;;;;;;;5.07;1.60;;;;;;;11.53;69.70;101162.56;5135278;27;20023;-48
2022/06/20 05:30:37;;;;;;;6.47;2.50;;;;;;;11.58;69.30;101162.88;5136815;27;20035;-49
2022/06/20 05:33:31;;;;;;;5.32;2.47;;;;;;;11.46;69.61;101153.56;5136534;27;20110;-49
2022/06/20 05:36:03;;;;;;;5.30;2.05;;;;;;;11.37;69.66;101156.34;5120951;27;20019;-51
2022/06/20 05:38:39;;;;;;;5.43;2.50;;;;;;;11.37;69.88;101156.34;5134982;27;20483;-50
2022/06/20 05:41:08;;;;;;;4.40;2.38;;;;;;;11.53;69.71;101171.47;5134817;27;20031;-49
2022/06/20 05:43:35;;;;;;;6.85;2.70;;;;;;;11.66;69.53;101173.53;5134733;27;20019;-49
2022/06/20 05:46:05;;;;;;;7.72;2.08;;;;;;;11.68;69.20;101149.16;5135185;27;20035;-50
2022/06/20 05:48:53;;;;;;;8.93;2.60;;;;;;;11.87;69.63;101172.84;5136343;27;20031;-48
2022/06/20 05:51:23;;;;;;;7.60;2.42;;;;;;;11.75;69.76;101158.97;5120795;27;20107;-48
2022/06/20 05:53:58;;;;;;;8.10;2.80;;;;;;;11.98;69.58;101176.97;5135952;27;20031;-48
2022/06/20 05:56:44;;;;;;;4.95;2.20;;;;;;;12.07;69.30;101178.53;5134851;27;20483;-48
2022/06/20 05:59:36;;;;;;;4.90;1.83;;;;;;;12.14;68.96;101187.53;5135811;27;20027;-50
2022/06/20 06:02:29;;;;;;;6.85;1.77;;;;;;;12.13;68.91;101190.44;5136316;27;20101;-49
2022/06/20 06:05:12;;;;;;;4.85;1.90;;;;;;;12.18;68.54;101186.16;5135932;27;20054;-50
2022/06/20 06:07:48;;;;;;;4.30;1.95;;;;;;;12.32;68.14;101199.78;5136318;27;20038;-49
2022/06/20 06:10:29;;;;;;;5.10;1.65;;;;;;;12.44;67.61;101189.38;5134703;27;20031;-48
2022/06/20 06:13:04;;;;;;;3.85;1.73;;;;;;;12.52;67.87;101197.34;5135600;27;20031;-50
2022/06/20 06:16:46;;;;;;;7.10;2.40;;;;;;;12.64;67.42;101195.81;5136369;27;20031;-51
2022/06/20 06:18:36;;;;;;;6.63;1.92;;;;;;;12.58;67.15;101207.38;5136329;27;20049;-49
2022/06/20 06:21:03;;;;;;;5.07;1.60;;;;;;;12.64;67.50;101219.25;5136405;27;20031;-50
2022/06/20 06:23:29;;;;;;;7.55;1.50;;;;;;;12.71;67.30;101204.81;5135395;27;20019;-49
2022/06/20 06:25:55;;;;;;;12.43;3.97;;;;;;;12.83;67.54;101213.25;5135988;27;20034;-49
2022/06/20 06:28:24;;;;;;;4.00;2.50;;;;;;;12.89;67.73;101219.72;5135389;27;20030;-49
2022/06/20 06:30:59;;;;;;;6.25;2.17;;;;;;;13.11;66.55;101215.19;5135291;27;20483;-49
2022/06/20 06:33:32;;;;;;;5.03;1.90;;;;;;;13.16;66.23;101216.28;5117976;27;20050;-50
2022/06/20 06:36:04;;;;;;;5.28;1.90;;;;;;;13.30;66.19;101227.25;5135144;27;20482;-50
2022/06/20 06:38:54;;;;;;;4.47;1.85;;;;;;;13.27;66.56;101224.91;5133297;27;20062;-50
2022/06/20 06:41:26;;;;;;;8.13;1.88;;;;;;;13.42;65.92;101217.63;5134426;27;20046;-48
2022/06/20 06:43:54;;;;;;;6.38;1.23;;;;;;;13.63;65.34;101218.63;5133850;27;20466;-50
2022/06/20 06:46:27;;;;;;;2.80;1.65;;;;;;;13.82;64.48;101217.09;5116824;27;20035;-51
2022/06/20 06:49:16;;;;;;;3.92;1.50;;;;;;;14.10;64.30;101223.34;5135093;27;20114;-48
2022/06/20 06:51:54;;;;;;;4.97;1.65;;;;;;;14.08;64.24;101222.69;5135879;27;20026;-49
2022/06/20 06:54:26;;;;;;;4.75;1.70;;;;;;;13.85;64.51;101212.13;5134877;27;20458;-50
2022/06/20 06:57:05;;;;;;;8.10;2.50;;;;;;;13.67;65.37;101230.69;5134102;27;20027;-50
2022/06/20 06:59:46;;;;;;;6.28;2.13;;;;;;;13.75;65.72;101234.09;5135097;27;20037;-51
2022/06/20 07:02:19;;;;;;;5.00;1.88;;;;;;;13.66;65.20;101218.25;5134952;27;20464;-49
2022/06/20 07:05:11;;;;;;;7.20;1.95;;;;;;;13.67;65.31;101244.19;5117167;27;20447;-49
2022/06/20 07:07:46;;;;;;;5.97;2.17;;;;;;;13.46;65.08;101175.72;5134007;27;20115;-49
2022/06/20 07:10:19;;;;;;;5.90;1.75;;;;;;;13.92;65.13;101239.19;5135043;27;20035;-49
2022/06/20 07:12:50;;;;;;;8.32;1.50;;;;;;;14.07;64.15;101236.41;5133913;27;20034;-49
2022/06/20 07:15:20;;;;;;;8.52;2.05;;;;;;;14.29;63.59;101237.16;5117395;27;20027;-51
2022/06/20 07:17:50;;;;;;;8.52;1.90;;;;;;;14.50;62.92;101244.31;5134767;27;20406;-52
2022/06/20 07:20:19;;;;;;;6.43;1.80;;;;;;;14.59;62.89;101243.16;5134682;27;20391;-50
2022/06/20 07:22:47;;;;;;;8.20;2.00;;;;;;;14.88;62.47;101246.63;5133278;27;20023;-48
2022/06/20 07:25:20;;;;;;;11.73;1.90;;;;;;;15.02;61.53;101233.94;5134829;27;20027;-50
2022/06/20 07:27:55;;;;;;;7.80;2.05;;;;;;;15.26;61.14;101237.94;5134583;27;20046;-49
2022/06/20 07:30:26;;;;;;;4.35;1.65;;;;;;;15.27;60.99;101240.47;5132970;27;20046;-49
2022/06/20 07:32:59;;;;;;;6.25;1.60;;;;;;;15.36;60.32;101237.53;5132742;27;20037;-49
2022/06/20 07:35:31;;;;;;;6.68;1.83;;;;;;;15.59;59.53;101245.28;5132979;27;20117;-49
2022/06/20 07:38:05;;;;;;;7.50;2.15;;;;;;;15.60;58.90;101242.38;5134500;27;20027;-51
2022/06/20 07:40:36;;;;;;;7.45;1.80;;;;;;;15.84;58.48;101251.78;5134143;27;20052;-50
2022/06/20 07:43:10;;;;;;;5.60;1.83;;;;;;;15.97;57.30;101259.06;5098726;27;20378;-50
2022/06/20 07:45:41;;;;;;;6.15;2.13;;;;;;;15.93;56.29;101257.78;5132657;27;20076;-51
2022/06/20 07:48:20;;;;;;;6.10;1.63;;;;;;;15.74;57.26;101240.53;5115634;27;20424;-49
2022/06/20 07:50:52;;;;;;;4.63;1.65;;;;;;;15.70;57.54;101255.50;5134432;27;20027;-48
2022/06/20 07:53:24;;;;;;;5.40;1.98;;;;;;;15.76;58.00;101249.25;5132963;27;20031;-48
2022/06/20 07:55:57;;;;;;;5.57;1.75;;;;;;;15.32;55.97;101242.53;5133990;27;20031;-49
2022/06/20 07:58:28;;;;;;;7.53;1.67;;;;;;;15.13;56.69;101240.63;5133988;27;20023;-48
2022/06/20 08:00:55;;;;;;;3.40;1.60;;;;;;;14.85;57.16;101250.53;5134531;27;20037;-48
2022/06/20 08:03:43;;;;;;;3.20;1.58;;;;;;;14.81;56.75;101254.69;5134042;27;20027;-49
2022/06/20 08:06:20;;;;;;;4.97;1.90;;;;;;;15.22;57.20;101248.34;5133342;28;20087;-48
2022/06/20 08:08:54;;;;;;;5.50;2.03;;;;;;;15.10;55.50;101240.00;5133655;27;20047;-48
2022/06/20 08:11:43;;;;;;;3.72;1.40;;;;;;;15.08;56.17;101246.66;5133818;27;20499;-50
2022/06/20 08:14:48;;;;;;;7.18;1.60;;;;;;;15.28;55.97;101252.13;5133706;27;20035;-48
2022/06/20 08:17:14;;;;;;;10.90;1.73;;;;;;;15.31;56.08;101254.41;5121409;28;20111;-48
2022/06/20 08:19:44;;;;;;;3.95;1.55;;;;;;;15.41;55.73;101240.47;5133181;28;20035;-50
2022/06/20 08:22:20;;;;;;;5.43;2.00;;;;;;;15.64;55.70;101249.03;5134660;27;20031;-52
2022/06/20 08:25:06;;;;;;;7.03;1.88;;;;;;;17.29;51.90;101238.97;5134661;27;20027;-52
2022/06/20 08:27:56;;;;;;;3.63;1.35;;;;;;;17.90;49.33;101242.91;5134283;27;20061;-50
2022/06/20 08:30:32;;;;;;;6.07;1.60;;;;;;;17.37;50.67;101241.44;5133225;28;20134;-48
2022/06/20 08:33:08;;;;;;;3.60;1.40;;;;;;;17.06;50.73;101248.50;5134022;27;20042;-49
2022/06/20 08:35:49;;;;;;;6.47;1.63;;;;;;;16.83;49.56;101244.47;5133900;27;20471;-49
2022/06/20 08:38:23;;;;;;;5.03;1.33;;;;;;;16.61;51.01;101252.03;5132531;28;20530;-52
2022/06/20 08:41:28;;;;;;;4.87;1.40;;;;;;;16.52;51.03;101253.31;5133473;27;20023;-48
2022/06/20 08:44:22;;;;;;;6.40;1.90;;;;;;;18.50;47.62;101236.88;5122432;28;20027;-52
2022/06/20 08:47:19;;;;;;;7.50;1.67;;;;;;;20.13;45.01;101255.00;5118586;28;20032;-50
2022/06/20 08:50:25;;;;;;;2.55;1.10;;;;;;;20.26;44.95;101238.38;5132854;28;20031;-49
2022/06/20 08:53:24;;;;;;;6.72;1.88;;;;;;;18.83;46.54;101238.34;5132186;28;20019;-51
2022/06/20 08:56:15;;;;;;;7.15;1.85;;;;;;;18.14;47.15;101261.06;5132366;28;20031;-49
2022/06/20 08:59:07;;;;;;;4.35;1.70;;;;;;;17.83;48.81;101259.25;5132629;28;20391;-48
2022/06/20 09:01:51;;;;;;;4.85;1.90;;;;;;;18.12;47.80;101252.31;5120270;27;20117;-49
2022/06/20 09:04:40;;;;;;;4.18;2.08;;;;;;;18.60;47.33;101253.47;5137196;27;20023;-49
2022/06/20 09:07:30;;;;;;;6.65;1.67;;;;;;;20.01;43.64;101252.28;5137041;27;20109;-53
2022/06/20 09:10:31;;;;;;;6.70;2.72;;;;;;;20.97;42.95;101238.22;5135712;27;20039;-48
2022/06/20 09:13:20;;;;;;;4.82;2.03;;;;;;;21.61;40.54;101255.25;5121500;27;20031;-47
2022/06/20 09:16:20;;;;;;;4.55;1.70;;;;;;;21.11;42.54;101238.75;5136047;27;20035;-49
2022/06/20 09:19:12;;;;;;;3.58;1.80;;;;;;;19.84;44.80;101253.00;5136555;27;20168;-50
2022/06/20 09:22:00;;;;;;;3.78;1.65;;;;;;;19.28;45.72;101243.41;5137324;27;20031;-52
2022/06/20 09:24:53;;;;;;;4.53;1.65;;;;;;;18.97;44.74;101258.91;5136428;27;20023;-50
2022/06/20 09:27:33;;;;;;;4.35;1.63;;;;;;;18.87;46.21;101266.75;5135825;27;20047;-50
2022/06/20 09:30:19;;;;;;;4.80;1.98;;;;;;;18.73;45.84;101274.25;5135667;27;20038;-48
2022/06/20 09:33:15;;;;;;;3.88;1.73;;;;;;;18.48;46.97;101269.72;5136956;27;20028;-49
2022/06/20 09:36:11;;;;;;;5.25;1.83;;;;;;;20.26;44.52;101246.56;5122912;27;20024;-49
2022/06/20 09:39:02;;;;;;;5.22;1.58;;;;;;;19.90;44.28;101248.50;5136080;27;20444;-49
2022/06/20 09:41:39;;;;;;;4.43;1.75;;;;;;;19.62;45.88;101240.97;5121861;27;20041;-48
2022/06/20 09:44:33;;;;;;;8.02;1.77;;;;;;;20.02;43.36;101259.38;5136577;27;20027;-48
2022/06/20 09:47:18;;;;;;;85.05;12.50;;;;;;;20.43;43.39;101241.19;5135878;27;20103;-48
2022/06/20 09:50:04;;;;;;;12.82;3.83;;;;;;;21.16;41.26;101238.88;5136493;27;20039;-48
2022/06/20 09:52:46;;;;;;;14.25;3.45;;;;;;;20.70;42.14;101241.53;5135151;27;20080;-48
2022/06/20 09:55:27;;;;;;;8.80;1.95;;;;;;;22.18;40.58;101250.66;5118320;27;20034;-49
2022/06/20 09:58:07;;;;;;;2.60;1.80;;;;;;;22.61;38.82;101247.13;5134984;27;20497;-49
2022/06/20 10:00:44;;;;;;;7.65;1.88;;;;;;;21.74;39.38;101245.06;5136393;27;20031;-50
2022/06/20 10:03:24;;;;;;;6.70;1.55;;;;;;;23.02;37.15;101235.00;5135111;27;20025;-49
2022/06/20 10:05:57;;;;;;;4.90;1.55;;;;;;;22.08;38.75;101258.69;5135223;27;20034;-48
2022/06/20 10:08:46;;;;;;;6.10;1.85;;;;;;;22.45;38.62;101245.28;5134350;27;20051;-48
2022/06/20 10:11:22;;;;;;;6.95;2.13;;;;;;;21.80;38.99;101242.16;5135930;27;20072;-49
2022/06/20 10:14:00;;;;;;;5.25;2.40;;;;;;;21.96;38.30;101239.66;5134883;27;20180;-49
2022/06/20 10:16:38;;;;;;;4.40;2.00;;;;;;;23.00;38.20;101236.06;5134247;27;20033;-49
2022/06/20 10:19:20;;;;;;;3.67;1.77;;;;;;;24.65;35.59;101226.34;5135664;27;20106;-50
2022/06/20 10:22:14;;;;;;;5.38;1.70;;;;;;;23.07;36.29;101229.59;5134256;27;20043;-48
2022/06/20 10:25:16;;;;;;;4.93;1.83;;;;;;;22.51;37.38;101238.81;5134653;27;20051;-51
2022/06/20 10:27:52;;;;;;;3.95;1.38;;;;;;;21.89;38.83;101236.25;5122552;27;20266;-49
2022/06/20 10:30:33;;;;;;;3.67;1.83;;;;;;;21.60;39.26;101234.47;5134512;27;20091;-50
2022/06/20 10:33:25;;;;;;;10.13;1.77;;;;;;;21.81;37.26;101238.34;5135308;27;20069;-51
2022/06/20 10:36:01;;;;;;;7.55;2.00;;;;;;;21.64;37.68;101226.59;5134882;27;20027;-50
2022/06/20 10:38:57;;;;;;;5.55;1.75;;;;;;;21.73;37.74;101238.78;5135902;27;20070;-50
2022/06/20 10:41:39;;;;;;;6.90;1.60;;;;;;;21.64;38.81;101232.06;5121503;27;20035;-50
2022/06/20 10:44:23;;;;;;;6.32;2.08;;;;;;;21.55;39.58;101228.09;5135510;27;20028;-49
2022/06/20 10:47:12;;;;;;;2.53;1.38;;;;;;;21.49;37.48;101234.53;5135476;27;20035;-48
2022/06/20 10:49:54;;;;;;;5.65;1.48;;;;;;;21.38;38.77;101234.34;5135582;27;20031;-50
2022/06/20 10:52:37;;;;;;;6.00;1.88;;;;;;;21.28;38.47;101245.06;5135672;27;20019;-50
2022/06/20 10:55:30;;;;;;;7.55;2.20;;;;;;;23.64;34.50;101237.22;5135822;27;20035;-48
2022/06/20 10:58:12;;;;;;;3.40;1.80;;;;;;;25.08;34.43;101229.75;5134321;27;20046;-48
2022/06/20 11:00:45;;;;;;;4.20;1.73;;;;;;;26.25;30.64;101236.31;5134327;27;20031;-50
2022/06/20 11:03:44;;;;;;;6.80;2.00;;;;;;;27.08;30.06;101231.25;5134091;27;20023;-52
2022/06/20 11:06:25;;;;;;;5.57;1.95;;;;;;;28.17;29.65;101230.03;5134099;27;20023;-50
2022/06/20 11:09:20;;;;;;;2.80;1.70;;;;;;;28.21;26.42;101227.50;5133419;27;20058;-49
2022/06/20 11:12:11;;;;;;;4.43;1.85;;;;;;;28.14;27.63;101212.13;5133776;27;20080;-48
2022/06/20 11:15:09;;;;;;;4.43;1.48;;;;;;;27.12;27.95;101219.38;5119696;27;20035;-52
2022/06/20 11:17:45;;;;;;;5.25;1.45;;;;;;;27.46;29.20;101226.03;5134074;27;20107;-50
2022/06/20 11:20:25;;;;;;;5.03;2.00;;;;;;;26.49;29.78;101230.19;5135479;27;20038;-49
2022/06/20 11:23:06;;;;;;;77.18;7.38;;;;;;;25.71;30.87;101223.19;5133832;27;20031;-49
2022/06/20 11:26:09;;;;;;;3.65;2.35;;;;;;;27.14;28.88;101219.91;5135168;27;20082;-52
2022/06/20 11:29:00;;;;;;;4.40;1.50;;;;;;;27.39;29.68;101227.16;5134439;27;20473;-54
2022/06/20 11:31:40;;;;;;;3.42;1.48;;;;;;;26.33;30.65;101240.41;5134264;27;20087;-49
2022/06/20 11:34:38;;;;;;;3.78;1.48;;;;;;;26.92;29.68;101231.34;5135408;27;20042;-51
2022/06/20 11:37:17;;;;;;;3.92;1.52;;;;;;;28.36;28.64;101222.66;5134223;27;20471;-49
2022/06/20 11:40:09;;;;;;;6.90;1.70;;;;;;;28.89;27.86;101226.38;5134835;27;20031;-49
2022/06/20 11:43:06;;;;;;;5.25;1.50;;;;;;;29.55;25.20;101224.56;5134414;27;20030;-48
2022/06/20 11:45:55;;;;;;;2.63;1.33;;;;;;;29.72;26.64;101204.59;5133985;27;20031;-47
2022/06/20 11:48:40;;;;;;;2.40;1.10;;;;;;;29.39;25.79;101212.91;5133101;27;20031;-51
2022/06/20 11:51:45;;;;;;;4.75;1.58;;;;;;;30.11;23.74;101209.66;5133212;27;20030;-54
2022/06/20 11:54:51;;;;;;;3.22;1.45;;;;;;;30.47;24.43;101225.59;5121798;28;20031;-54
2022/06/20 11:57:29;;;;;;;3.58;1.60;;;;;;;31.23;23.45;101213.88;5121731;28;20027;-49
2022/06/20 12:00:03;;;;;;;2.67;1.50;;;;;;;30.38;25.42;101208.03;5134294;27;20478;-49
2022/06/20 12:02:43;;;;;;;4.13;1.40;;;;;;;30.21;25.46;101211.41;5133058;28;20019;-51
2022/06/20 12:05:48;;;;;;;4.03;1.58;;;;;;;30.53;23.80;101215.19;5134333;27;20027;-49
2022/06/20 12:08:49;;;;;;;4.47;1.88;;;;;;;29.79;22.74;101206.97;5107001;28;20058;-48
2022/06/20 12:11:37;;;;;;;3.25;1.58;;;;;;;30.71;25.03;101202.34;5133697;28;20027;-50
2022/06/20 12:14:19;;;;;;;7.45;1.63;;;;;;;29.47;26.12;101208.63;5133192;28;20473;-50
2022/06/20 12:17:24;;;;;;;3.28;1.92;;;;;;;29.53;24.52;101207.41;5134374;27;20072;-50